Portada
METAR-TAF:

METAR-TAF

Aeroports :

Kizilordà, Kazakhstan

latitud: 44-51N, longitud: 065-30E, altitud: 129 m

Observació

L'informe es va fer fa 32 minuts, a les 05:30 UTC
Vent 8 kt del Est/Nord-Est, variant entre Nord/Nord-Est i Est
Temperatura 0°C
Humitat 74%
Pressió 1026 hPa
Visibilitat 10 km o més
sense núvols per sota de 1500 mi sense presència de cumulonimbus.

METAR: UAOO 200530Z 06004MPS 030V090 CAVOK 00/M04 Q1026 R05/CLRD70 NOSIG RMK QFE758/1011

Hora: 11:02 (06:02 UTC)

Pronòstic

L'informe es va fer fa 1 hora i 2 minuts, a les 05:00 UTC
Pronòstic vàlid del 20 a les 06 UTC al 20 a les 15 UTC
Vent 12 kt del Est/Nord-Est
Visibilitat 10 km o més
sense núvols per sota de 1500 mi sense presència de cumulonimbus.

TAF: UAOO 200500Z 2006/2015 06006MPS CAVOK

Observacions i pronòstics meteorològics de més de 4000 aeroports (METAR i TAF).

Les estacions disponibles són els punts grocs i vermells al mapa.

Posi el ratolí al punt desitjat per veure el nom de l'estació.

Feu clic per veure les observacions i els pronòstics meteorològics.

Per canviar el mapa: feu clic els botons verds amb una creu de color negre per apropar; al botó verd amb un guió per allunyar la imatge; o en les fletxes verdes per a mapes adjacents.


METAR-TAF: